Murfreesboro, Arkansas
Current Conditions -  °F | °C
As of 6:53 PM on Saturday 22 Nov 2014 (Local Time) from KMWT Reporting Station
Haze Haze  
Wind Chill: 55°   Ceiling: 3900
Heat Index: 55°   Visibility: 3mi
Dew Point: 53°   Wind: 0mph
Humidity: 93%   Direction: NA
Pressure: 29.93"   Gusts: NA
Location:  34.06°N, 93.69°W
Report Text: KMWT 230053Z AUTO 00000KT 3SM BR BKN039 OVC047 13/12 A2993 RMK AO2 SLP133 T01280117
Loading
Personal Weather Stations






























Interactive Weather Map New forecast layout! Learn more

10-Day Weather Forecast

Advertisements
Track Severe Weather on mobile